createdAt,value
2017-05-04T07:21:12.220Z,4.62
2017-05-04T07:22:16.570Z,5.38
2017-05-04T07:23:21.057Z,5.96
2017-05-04T07:24:25.527Z,7.10
2017-05-04T07:25:29.936Z,7.68
2017-05-04T07:26:35.275Z,8.73
2017-05-04T07:27:39.695Z,9.48
2017-05-04T07:28:44.150Z,9.67
2017-05-04T07:29:49.517Z,10.53
2017-05-04T07:30:54.148Z,11.10
2017-05-04T07:31:58.571Z,11.01
2017-05-04T07:33:03.054Z,11.38
2017-05-04T07:34:07.462Z,11.66
2017-05-04T07:35:11.829Z,12.62
2017-05-04T07:36:16.236Z,13.19
2017-05-04T07:37:20.714Z,13.29
2017-05-04T07:38:25.195Z,13.85
2017-05-04T07:39:29.563Z,13.57
2017-05-04T07:40:33.956Z,14.61
2017-05-04T07:41:38.400Z,15.46
2017-05-04T07:42:42.836Z,16.03
2017-05-04T07:43:47.216Z,16.22
2017-05-04T07:44:51.596Z,16.99
2017-05-04T07:45:56.032Z,16.80
2017-05-04T07:47:00.414Z,16.98
2017-05-04T07:48:05.037Z,17.36
2017-05-04T07:49:09.614Z,18.13
2017-05-04T07:50:14.243Z,17.84
2017-05-04T07:51:18.653Z,18.50
2017-05-04T07:52:23.139Z,18.40
2017-05-04T07:53:27.574Z,18.98
2017-05-04T07:54:32.056Z,19.54
2017-05-04T07:55:37.306Z,19.72
2017-05-04T07:56:41.935Z,20.76
2017-05-04T07:57:46.330Z,21.34
2017-05-04T07:58:50.745Z,20.86
2017-05-04T07:59:55.167Z,21.62
2017-05-04T08:00:59.620Z,22.10
2017-05-04T08:02:04.038Z,21.72
2017-05-04T08:03:08.527Z,21.15
2017-05-04T08:04:13.123Z,21.81
2017-05-04T08:05:17.535Z,20.96
2017-05-04T08:06:21.940Z,21.15
2017-05-04T08:07:26.331Z,20.10
2017-05-04T08:08:30.740Z,20.10
2017-05-04T08:09:35.182Z,21.05
2017-05-04T08:10:39.558Z,21.24
2017-05-04T08:11:43.957Z,21.05
2017-05-04T08:12:48.280Z,21.05
2017-05-04T08:13:52.688Z,21.81
2017-05-04T08:14:57.100Z,21.44
2017-05-04T08:16:01.538Z,20.96
2017-05-04T08:17:05.869Z,21.91
2017-05-04T08:18:10.310Z,21.72
2017-05-04T08:19:14.643Z,21.05
2017-05-04T08:20:19.753Z,21.15
2017-05-04T08:21:24.253Z,21.44
2017-05-04T08:22:28.643Z,22.00
2017-05-04T08:23:51.176Z,22.10
2017-05-04T08:24:55.510Z,22.10
2017-05-04T08:25:59.901Z,21.62
2017-05-04T08:27:04.307Z,21.05
2017-05-04T08:28:08.658Z,21.15
2017-05-04T08:29:13.104Z,21.81
2017-05-04T08:59:32.838Z,24.67
2017-05-04T09:00:37.176Z,24.77
2017-05-04T09:01:41.888Z,25.34
2017-05-04T09:02:46.332Z,25.71
2017-05-04T09:03:51.005Z,25.71
2017-05-04T09:04:55.395Z,26.37
2017-05-04T09:05:59.838Z,26.01
2017-05-04T09:07:04.293Z,25.34
2017-05-04T09:08:08.746Z,24.77
2017-05-04T09:09:13.229Z,24.58
2017-05-04T09:10:17.732Z,24.58
2017-05-04T09:11:22.140Z,24.58
2017-05-04T09:12:26.634Z,25.43
2017-05-04T09:13:31.065Z,25.43
2017-05-04T09:14:35.517Z,25.53
2017-05-04T09:15:40.158Z,25.43
2017-05-04T09:16:44.645Z,25.23
2017-05-04T09:17:49.098Z,25.23
2017-05-04T09:18:54.020Z,25.33
2017-05-04T09:19:58.486Z,26.20
2017-05-04T09:21:02.969Z,26.18
2017-05-04T09:22:07.435Z,25.72
2017-05-04T09:23:11.907Z,26.01
2017-05-04T09:24:16.434Z,25.91
2017-05-04T09:25:21.859Z,25.82
2017-05-04T09:26:26.786Z,26.67
2017-05-04T09:27:32.179Z,25.62
2017-05-04T09:28:36.806Z,25.43
2017-05-04T09:29:42.061Z,25.82
2017-05-04T09:30:46.578Z,26.48
2017-05-04T09:31:51.230Z,25.82
2017-05-04T09:32:55.942Z,25.43
2017-05-04T09:34:00.412Z,25.43
2017-05-04T09:35:04.933Z,25.34
2017-05-04T09:36:09.438Z,26.20
2017-05-04T09:37:13.953Z,25.53
2017-05-04T09:38:18.381Z,25.72
2017-05-04T09:39:22.882Z,26.20
2017-05-04T09:40:27.301Z,26.10
2017-05-04T09:41:31.770Z,25.34
2017-05-04T09:42:37.251Z,26.01
2017-05-04T09:43:41.625Z,25.53
2017-05-04T09:44:46.059Z,25.34
2017-05-04T09:45:50.487Z,26.10
2017-05-04T09:46:54.846Z,25.05
2017-05-04T09:47:59.304Z,24.58
2017-05-04T09:49:03.724Z,24.19
2017-05-04T09:50:08.152Z,24.48
2017-05-04T09:51:12.604Z,24.87
2017-05-04T09:52:17.243Z,25.24
2017-05-04T09:53:22.111Z,24.87
2017-05-04T09:54:26.775Z,25.34
2017-05-04T09:55:32.904Z,24.87
2017-05-04T09:56:37.550Z,24.87
2017-05-04T09:57:42.049Z,25.23
2017-05-04T09:58:46.604Z,25.24
2017-05-04T09:59:51.013Z,25.34
2017-05-04T10:00:55.712Z,24.48
2017-05-04T10:02:00.151Z,24.67
2017-05-04T10:03:04.571Z,24.87
2017-05-04T10:04:08.993Z,24.77
2017-05-04T10:05:13.390Z,24.67
2017-05-04T10:06:17.841Z,24.58
2017-05-04T10:07:22.276Z,24.77
2017-05-04T10:08:26.731Z,24.58
2017-05-04T10:09:31.196Z,24.58
2017-05-04T10:10:35.621Z,25.24
2017-05-04T10:11:40.021Z,25.53
2017-05-04T10:12:44.387Z,26.01
2017-05-04T10:13:48.888Z,25.53
2017-05-04T10:14:53.435Z,25.81
2017-05-04T10:15:57.886Z,25.43
2017-05-04T10:17:02.319Z,25.62
2017-05-04T10:18:06.789Z,25.91
2017-05-04T10:19:11.232Z,26.01
2017-05-04T10:20:15.637Z,26.77
2017-05-04T10:21:20.256Z,27.25
2017-05-04T10:22:24.860Z,26.85
2017-05-04T10:23:29.268Z,26.66
2017-05-04T10:24:33.672Z,25.62
2017-05-04T10:25:38.368Z,25.91
2017-05-04T10:26:42.706Z,26.01
2017-05-04T10:27:47.159Z,26.01
2017-05-04T10:28:51.604Z,26.10
2017-05-04T10:29:56.026Z,26.47
2017-05-04T10:31:00.487Z,26.66
2017-05-04T10:32:04.933Z,27.23
2017-05-04T10:33:09.324Z,27.42
2017-05-04T10:34:13.751Z,27.42
2017-05-04T10:35:18.651Z,27.81
2017-05-04T10:36:23.134Z,26.95
2017-05-04T10:37:27.564Z,27.61
2017-05-04T10:38:32.178Z,26.76
2017-05-04T10:39:36.571Z,27.14
2017-05-04T10:40:41.011Z,27.80
2017-05-04T10:41:45.471Z,27.71
2017-05-04T10:42:49.899Z,28.19
2017-05-04T10:43:54.289Z,27.90
2017-05-04T10:44:58.636Z,27.90
2017-05-04T10:46:03.293Z,27.33
2017-05-04T10:47:07.681Z,27.71
2017-05-04T10:48:12.075Z,27.80
2017-05-04T10:49:16.506Z,28.19
2017-05-04T10:50:21.074Z,26.95
2017-05-04T10:51:25.548Z,27.33
2017-05-04T10:52:30.092Z,27.42
2017-05-04T10:53:34.619Z,27.61
2017-05-04T10:54:39.120Z,27.15
2017-05-04T10:55:43.545Z,26.95
2017-05-04T10:56:47.878Z,27.25
2017-05-04T10:57:53.061Z,27.04
2017-05-04T10:58:57.450Z,26.66
2017-05-04T11:00:01.942Z,26.95
2017-05-04T11:01:06.335Z,26.95
2017-05-04T11:02:10.775Z,27.71
2017-05-04T11:03:15.229Z,27.61
2017-05-04T11:04:19.688Z,27.51
2017-05-04T11:05:24.113Z,26.95
2017-05-04T11:06:28.544Z,26.85
2017-05-04T11:07:33.027Z,27.04
2017-05-04T11:08:37.421Z,27.34
2017-05-04T11:09:41.854Z,27.62
2017-05-04T11:10:46.564Z,27.06
2017-05-04T11:11:51.060Z,27.14
2017-05-04T11:12:55.431Z,27.51
2017-05-04T11:13:59.805Z,27.23
2017-05-04T11:15:04.274Z,28.39
2017-05-04T11:16:08.773Z,27.44
2017-05-04T11:17:13.425Z,27.34
2017-05-04T11:18:17.891Z,26.58
2017-05-04T11:19:22.321Z,26.86
2017-05-04T11:20:26.994Z,27.15
2017-05-04T11:21:31.490Z,26.58
2017-05-04T11:22:36.098Z,26.77
2017-05-04T11:23:40.500Z,26.58
2017-05-04T11:24:44.944Z,26.67
2017-05-04T11:25:49.385Z,26.20
2017-05-04T11:26:54.078Z,26.37
2017-05-04T11:27:58.514Z,26.37
2017-05-04T11:29:02.914Z,26.47
2017-05-04T11:30:07.302Z,26.95
2017-05-04T11:31:11.783Z,26.95
2017-05-04T11:32:16.308Z,27.51
2017-05-04T11:33:20.808Z,27.42
2017-05-04T11:34:25.242Z,27.33
2017-05-04T11:35:29.632Z,26.56
2017-05-04T11:36:34.110Z,26.95
2017-05-04T11:37:38.516Z,27.23
2017-05-04T11:38:43.002Z,27.04
2017-05-04T11:39:47.408Z,27.61
2017-05-04T11:40:52.690Z,27.71
2017-05-04T11:41:57.122Z,27.90
2017-05-04T11:43:01.532Z,27.99
2017-05-04T11:44:05.977Z,27.51
2017-05-04T11:45:10.410Z,27.51
2017-05-04T11:46:14.814Z,27.04
2017-05-04T11:47:19.240Z,27.33
2017-05-04T11:48:23.951Z,27.51
